Maran Poseidon — SVAV3 — position and weather

sailwx.info

Track history (hours):
 
Tides and Currents Weather Stations Pressure Air Temp Water Temp Dewpoint Dewpoint Depression Visibility Wind Speed Wind Dir Waves Ship Positions

Maran Poseidon

Last reported at 2016-Jun-29 23:33 UTC. Time now 2016-Jun-29 23:45 UTC.
Position S 29°45' E 031°12'.

Length 274 m; draft 12.5 m.

Type: Tanker. MMSI: 240959000.

Date/timePositionNaut miles runAvg speedWind from/ knotsBaromVisibWave heightAir tempDewpointWater temp
2016-Jun-29 23:33S 29°45' E 031°12'0 0.0
2016-Jun-29 22:33S 29°45' E 031°12'0 0.0
2016-Jun-29 21:33S 29°45' E 031°12'0 0.0
2016-Jun-29 20:33S 29°45' E 031°12'0 0.0
2016-Jun-29 19:33S 29°45' E 031°12'0 0.0
2016-Jun-29 18:33S 29°45' E 031°12'0 0.0
2016-Jun-29 17:33S 29°45' E 031°12'0 0.0
2016-Jun-29 16:33S 29°45' E 031°12'0 0.0
2016-Jun-29 15:33S 29°45' E 031°12'0 0.0
2016-Jun-29 14:33S 29°45' E 031°12'0 0.0
2016-Jun-29 13:33S 29°45' E 031°12'0 0.0
2016-Jun-29 12:33S 29°45' E 031°12'0 0.0
2016-Jun-29 11:30S 29°45' E 031°12'0 0.1
2016-Jun-29 10:30S 29°45' E 031°12'0 0.0
2016-Jun-29 09:33S 29°45' E 031°12'0 0.0
2016-Jun-29 08:33S 29°45' E 031°12'0 0.0
2016-Jun-29 07:33S 29°45' E 031°12'0 0.0
2016-Jun-29 06:24S 29°45' E 031°12'0 0.0
2016-Jun-29 05:33S 29°45' E 031°12'0 0.0
2016-Jun-29 04:33S 29°45' E 031°12'0 0.0
2016-Jun-29 03:30S 29°45' E 031°12'0 0.0
2016-Jun-29 02:33S 29°45' E 031°12'0 0.0
2016-Jun-29 01:33S 29°45' E 031°12'0 0.0
2016-Jun-29 00:33S 29°44' E 031°12'0 0.0
2016-Jun-28 23:33S 29°45' E 031°12'0 0.0
2016-Jun-28 22:33S 29°45' E 031°12'0 0.0
2016-Jun-28 21:33S 29°45' E 031°12'0 0.0
2016-Jun-28 20:33S 29°45' E 031°12'0 0.0
2016-Jun-28 19:33S 29°45' E 031°12'0 0.0
2016-Jun-28 18:33S 29°45' E 031°12'0 0.0
2016-Jun-28 17:33S 29°44' E 031°12'0 0.0
2016-Jun-28 16:33S 29°45' E 031°12'0 0.0
2016-Jun-28 15:33S 29°44' E 031°12'0 0.0
2016-Jun-28 14:33S 29°44' E 031°12'0 0.0
2016-Jun-28 13:33S 29°44' E 031°12'0 0.0
2016-Jun-28 12:33S 29°44' E 031°12'0 0.1
2016-Jun-28 11:33S 29°45' E 031°12'0 0.1
2016-Jun-28 10:33S 29°45' E 031°12'0 0.0
2016-Jun-28 09:33S 29°45' E 031°12'0 0.0
2016-Jun-28 08:33S 29°45' E 031°12'0 0.0
2016-Jun-28 07:33S 29°45' E 031°12'0 0.0
2016-Jun-28 06:33S 29°45' E 031°12'0 0.0
2016-Jun-28 04:30S 29°45' E 031°12'0 0.0
2016-Jun-28 03:33S 29°45' E 031°12'0 0.0
2016-Jun-28 02:30S 29°45' E 031°12'0 0.0
2016-Jun-28 01:30S 29°45' E 031°12'0 0.0
2016-Jun-28 00:33S 29°45' E 031°12'0 0.0
2016-Jun-27 23:33S 29°45' E 031°12'0 0.1
2016-Jun-27 22:33S 29°45' E 031°12'0 0.0
2016-Jun-27 21:30S 29°45' E 031°12'0 0.0
2016-Jun-27 20:30S 29°45' E 031°12'0 0.0
2016-Jun-27 19:33S 29°45' E 031°12'0 0.0
2016-Jun-27 18:33S 29°45' E 031°12'0 0.0
2016-Jun-27 17:33S 29°45' E 031°12'0 0.1
2016-Jun-27 16:33S 29°45' E 031°12'0 0.0
2016-Jun-27 15:33S 29°45' E 031°12'0 0.0
2016-Jun-27 14:33S 29°45' E 031°12'0 0.1
2016-Jun-27 13:30S 29°45' E 031°12'0 0.0
2016-Jun-27 12:30S 29°45' E 031°12'0 0.0
2016-Jun-27 11:30S 29°45' E 031°12'0 0.0
2016-Jun-27 10:33S 29°45' E 031°12'0 0.0
2016-Jun-27 09:33S 29°45' E 031°12'0 0.1
2016-Jun-27 08:30S 29°45' E 031°12'3 2.9
2016-Jun-27 07:34S 29°46' E 031°09'1010.2
2016-Jun-27 06:33S 29°56' E 031°11'1212.3
2016-Jun-27 05:33S 30°08' E 031°12'1110.9
2016-Jun-27 04:33S 30°19' E 031°13'9 9.1
2016-Jun-27 03:33S 30°28' E 031°14'9 8.6
2016-Jun-27 02:33S 30°37' E 031°15'8 8.4
2016-Jun-27 01:33S 30°45' E 031°12'9 9.0
2016-Jun-27 00:33S 30°52' E 031°06'9 8.8
2016-Jun-26 23:33S 30°59' E 031°00'9 9.0
2016-Jun-26 22:33S 31°07' E 030°54'9 9.0
2016-Jun-26 21:33S 31°14' E 030°48'10 9.3
2016-Jun-26 20:27S 31°23' E 030°42'9 9.7
2016-Jun-26 19:33S 31°30' E 030°36'1010.5
2016-Jun-26 18:33S 31°38' E 030°29'  
Track history (hours):
 
Tides and Currents Weather Stations Pressure Air Temp Water Temp Dewpoint Dewpoint Depression Visibility Wind Speed Wind Dir Waves Ship Positions

Maran Poseidon

Last reported at 2016-Jun-29 23:33 UTC. Time now 2016-Jun-29 23:45 UTC.
Position S 29°45' E 031°12'.

Length 274 m; draft 12.5 m.

Type: Tanker. MMSI: 240959000.

Date/timePositionNaut miles runAvg speedWind from/ knotsBaromVisibWave heightAir tempDewpointWater temp
2016-Jun-29 23:33S 29°45' E 031°12'0 0.0
2016-Jun-29 22:33S 29°45' E 031°12'0 0.0
2016-Jun-29 21:33S 29°45' E 031°12'0 0.0
2016-Jun-29 20:33S 29°45' E 031°12'0 0.0
2016-Jun-29 19:33S 29°45' E 031°12'0 0.0
2016-Jun-29 18:33S 29°45' E 031°12'0 0.0
2016-Jun-29 17:33S 29°45' E 031°12'0 0.0
2016-Jun-29 16:33S 29°45' E 031°12'0 0.0
2016-Jun-29 15:33S 29°45' E 031°12'0 0.0
2016-Jun-29 14:33S 29°45' E 031°12'0 0.0
2016-Jun-29 13:33S 29°45' E 031°12'0 0.0
2016-Jun-29 12:33S 29°45' E 031°12'0 0.0
2016-Jun-29 11:30S 29°45' E 031°12'0 0.1
2016-Jun-29 10:30S 29°45' E 031°12'0 0.0
2016-Jun-29 09:33S 29°45' E 031°12'0 0.0
2016-Jun-29 08:33S 29°45' E 031°12'0 0.0
2016-Jun-29 07:33S 29°45' E 031°12'0 0.0
2016-Jun-29 06:24S 29°45' E 031°12'0 0.0
2016-Jun-29 05:33S 29°45' E 031°12'0 0.0
2016-Jun-29 04:33S 29°45' E 031°12'0 0.0
2016-Jun-29 03:30S 29°45' E 031°12'0 0.0
2016-Jun-29 02:33S 29°45' E 031°12'0 0.0
2016-Jun-29 01:33S 29°45' E 031°12'0 0.0
2016-Jun-29 00:33S 29°44' E 031°12'0 0.0
2016-Jun-28 23:33S 29°45' E 031°12'0 0.0
2016-Jun-28 22:33S 29°45' E 031°12'0 0.0
2016-Jun-28 21:33S 29°45' E 031°12'0 0.0
2016-Jun-28 20:33S 29°45' E 031°12'0 0.0
2016-Jun-28 19:33S 29°45' E 031°12'0 0.0
2016-Jun-28 18:33S 29°45' E 031°12'0 0.0
2016-Jun-28 17:33S 29°44' E 031°12'0 0.0
2016-Jun-28 16:33S 29°45' E 031°12'0 0.0
2016-Jun-28 15:33S 29°44' E 031°12'0 0.0
2016-Jun-28 14:33S 29°44' E 031°12'0 0.0
2016-Jun-28 13:33S 29°44' E 031°12'0 0.0
2016-Jun-28 12:33S 29°44' E 031°12'0 0.1
2016-Jun-28 11:33S 29°45' E 031°12'0 0.1
2016-Jun-28 10:33S 29°45' E 031°12'0 0.0
2016-Jun-28 09:33S 29°45' E 031°12'0 0.0
2016-Jun-28 08:33S 29°45' E 031°12'0 0.0
2016-Jun-28 07:33S 29°45' E 031°12'0 0.0
2016-Jun-28 06:33S 29°45' E 031°12'0 0.0
2016-Jun-28 04:30S 29°45' E 031°12'0 0.0
2016-Jun-28 03:33S 29°45' E 031°12'0 0.0
2016-Jun-28 02:30S 29°45' E 031°12'0 0.0
2016-Jun-28 01:30S 29°45' E 031°12'0 0.0
2016-Jun-28 00:33S 29°45' E 031°12'0 0.0
2016-Jun-27 23:33S 29°45' E 031°12'0 0.1
2016-Jun-27 22:33S 29°45' E 031°12'0 0.0
2016-Jun-27 21:30S 29°45' E 031°12'0 0.0
2016-Jun-27 20:30S 29°45' E 031°12'0 0.0
2016-Jun-27 19:33S 29°45' E 031°12'0 0.0
2016-Jun-27 18:33S 29°45' E 031°12'0 0.0
2016-Jun-27 17:33S 29°45' E 031°12'0 0.1
2016-Jun-27 16:33S 29°45' E 031°12'0 0.0
2016-Jun-27 15:33S 29°45' E 031°12'0 0.0
2016-Jun-27 14:33S 29°45' E 031°12'0 0.1
2016-Jun-27 13:30S 29°45' E 031°12'0 0.0
2016-Jun-27 12:30S 29°45' E 031°12'0 0.0
2016-Jun-27 11:30S 29°45' E 031°12'0 0.0
2016-Jun-27 10:33S 29°45' E 031°12'0 0.0
2016-Jun-27 09:33S 29°45' E 031°12'0 0.1
2016-Jun-27 08:30S 29°45' E 031°12'3 2.9
2016-Jun-27 07:34S 29°46' E 031°09'1010.2
2016-Jun-27 06:33S 29°56' E 031°11'1212.3
2016-Jun-27 05:33S 30°08' E 031°12'1110.9
2016-Jun-27 04:33S 30°19' E 031°13'9 9.1
2016-Jun-27 03:33S 30°28' E 031°14'9 8.6
2016-Jun-27 02:33S 30°37' E 031°15'8 8.4
2016-Jun-27 01:33S 30°45' E 031°12'9 9.0
2016-Jun-27 00:33S 30°52' E 031°06'9 8.8
2016-Jun-26 23:33S 30°59' E 031°00'9 9.0
2016-Jun-26 22:33S 31°07' E 030°54'9 9.0
2016-Jun-26 21:33S 31°14' E 030°48'10 9.3
2016-Jun-26 20:27S 31°23' E 030°42'9 9.7
2016-Jun-26 19:33S 31°30' E 030°36'1010.5
2016-Jun-26 18:33S 31°38' E 030°29'  

Dump ship's entire track history